sensor_id;sensor_type;location;lat;lon;timestamp;temperature;humidity
12089;DHT22;6107;49.078;8.578;2023-07-13T00:01:58;18.80;99.90
12089;DHT22;6107;49.078;8.578;2023-07-13T00:04:25;18.60;99.90
12089;DHT22;6107;49.078;8.578;2023-07-13T00:06:51;18.50;99.90
12089;DHT22;6107;49.078;8.578;2023-07-13T00:09:18;18.30;99.90
12089;DHT22;6107;49.078;8.578;2023-07-13T00:11:45;18.40;99.90
12089;DHT22;6107;49.078;8.578;2023-07-13T00:16:41;18.00;99.90
12089;DHT22;6107;49.078;8.578;2023-07-13T00:19:09;18.10;99.90
12089;DHT22;6107;49.078;8.578;2023-07-13T00:21:35;17.80;99.90
12089;DHT22;6107;49.078;8.578;2023-07-13T00:24:01;17.70;99.90
12089;DHT22;6107;49.078;8.578;2023-07-13T00:26:26;17.70;99.90
12089;DHT22;6107;49.078;8.578;2023-07-13T00:28:52;17.60;99.90
12089;DHT22;6107;49.078;8.578;2023-07-13T00:31:18;17.70;99.90
12089;DHT22;6107;49.078;8.578;2023-07-13T00:33:43;17.30;99.90
12089;DHT22;6107;49.078;8.578;2023-07-13T00:36:10;17.30;99.90
12089;DHT22;6107;49.078;8.578;2023-07-13T00:38:36;17.40;99.90
12089;DHT22;6107;49.078;8.578;2023-07-13T00:41:03;17.30;99.90
12089;DHT22;6107;49.078;8.578;2023-07-13T00:43:30;17.30;99.90
12089;DHT22;6107;49.078;8.578;2023-07-13T00:48:28;17.50;99.90
12089;DHT22;6107;49.078;8.578;2023-07-13T00:50:57;17.40;99.90
12089;DHT22;6107;49.078;8.578;2023-07-13T00:53:25;17.30;99.90
12089;DHT22;6107;49.078;8.578;2023-07-13T00:55:51;17.30;99.90
12089;DHT22;6107;49.078;8.578;2023-07-13T00:58:19;17.10;99.90
12089;DHT22;6107;49.078;8.578;2023-07-13T01:00:46;16.90;99.90
12089;DHT22;6107;49.078;8.578;2023-07-13T01:03:12;16.80;99.90
12089;DHT22;6107;49.078;8.578;2023-07-13T01:05:37;16.80;99.90
12089;DHT22;6107;49.078;8.578;2023-07-13T01:08:04;16.70;99.90
12089;DHT22;6107;49.078;8.578;2023-07-13T01:10:31;16.40;99.90
12089;DHT22;6107;49.078;8.578;2023-07-13T01:13:07;16.70;99.90
12089;DHT22;6107;49.078;8.578;2023-07-13T01:15:45;16.70;99.90
12089;DHT22;6107;49.078;8.578;2023-07-13T01:18:20;16.50;99.90
12089;DHT22;6107;49.078;8.578;2023-07-13T01:20:59;16.70;99.90
12089;DHT22;6107;49.078;8.578;2023-07-13T01:23:26;16.80;99.90
12089;DHT22;6107;49.078;8.578;2023-07-13T01:25:53;16.70;99.90
12089;DHT22;6107;49.078;8.578;2023-07-13T01:28:18;16.70;99.90
12089;DHT22;6107;49.078;8.578;2023-07-13T01:30:45;16.50;99.90
12089;DHT22;6107;49.078;8.578;2023-07-13T01:33:15;16.50;99.90
12089;DHT22;6107;49.078;8.578;2023-07-13T01:38:08;16.10;99.90
12089;DHT22;6107;49.078;8.578;2023-07-13T01:40:36;15.80;99.90
12089;DHT22;6107;49.078;8.578;2023-07-13T01:43:02;15.90;99.90
12089;DHT22;6107;49.078;8.578;2023-07-13T01:45:28;15.90;99.90
12089;DHT22;6107;49.078;8.578;2023-07-13T01:47:53;15.50;99.90
12089;DHT22;6107;49.078;8.578;2023-07-13T01:50:19;15.80;99.90
12089;DHT22;6107;49.078;8.578;2023-07-13T01:52:45;15.90;99.90
12089;DHT22;6107;49.078;8.578;2023-07-13T01:55:11;15.70;99.90
12089;DHT22;6107;49.078;8.578;2023-07-13T01:57:36;15.90;99.90
12089;DHT22;6107;49.078;8.578;2023-07-13T02:00:06;15.80;99.90
12089;DHT22;6107;49.078;8.578;2023-07-13T02:02:31;15.80;99.90
12089;DHT22;6107;49.078;8.578;2023-07-13T02:04:57;15.60;99.90
12089;DHT22;6107;49.078;8.578;2023-07-13T02:07:23;15.60;99.90
12089;DHT22;6107;49.078;8.578;2023-07-13T02:09:48;15.60;99.90
12089;DHT22;6107;49.078;8.578;2023-07-13T02:12:13;15.70;99.90
12089;DHT22;6107;49.078;8.578;2023-07-13T02:14:39;15.60;99.90
12089;DHT22;6107;49.078;8.578;2023-07-13T02:17:05;15.40;99.90
12089;DHT22;6107;49.078;8.578;2023-07-13T02:19:31;15.50;99.90
12089;DHT22;6107;49.078;8.578;2023-07-13T02:21:57;15.20;99.90
12089;DHT22;6107;49.078;8.578;2023-07-13T02:24:23;15.20;99.90
12089;DHT22;6107;49.078;8.578;2023-07-13T02:26:48;15.10;99.90
12089;DHT22;6107;49.078;8.578;2023-07-13T02:29:14;15.00;99.90
12089;DHT22;6107;49.078;8.578;2023-07-13T02:31:39;14.90;99.90
12089;DHT22;6107;49.078;8.578;2023-07-13T02:34:05;15.00;99.90
12089;DHT22;6107;49.078;8.578;2023-07-13T02:36:31;15.10;99.90
12089;DHT22;6107;49.078;8.578;2023-07-13T02:39:02;15.00;99.90
12089;DHT22;6107;49.078;8.578;2023-07-13T02:41:28;15.00;99.90
12089;DHT22;6107;49.078;8.578;2023-07-13T02:43:54;15.20;99.90
12089;DHT22;6107;49.078;8.578;2023-07-13T02:46:22;15.00;99.90
12089;DHT22;6107;49.078;8.578;2023-07-13T02:48:49;15.00;99.90
12089;DHT22;6107;49.078;8.578;2023-07-13T02:51:14;15.00;99.90
12089;DHT22;6107;49.078;8.578;2023-07-13T02:53:40;14.90;99.90
12089;DHT22;6107;49.078;8.578;2023-07-13T02:56:06;14.80;99.90
12089;DHT22;6107;49.078;8.578;2023-07-13T02:58:32;14.90;99.90
12089;DHT22;6107;49.078;8.578;2023-07-13T03:00:59;14.90;99.90
12089;DHT22;6107;49.078;8.578;2023-07-13T03:03:24;14.70;99.90
12089;DHT22;6107;49.078;8.578;2023-07-13T03:05:59;14.70;99.90
12089;DHT22;6107;49.078;8.578;2023-07-13T03:11:03;14.50;99.90
12089;DHT22;6107;49.078;8.578;2023-07-13T03:13:29;14.40;99.90
12089;DHT22;6107;49.078;8.578;2023-07-13T03:15:54;14.50;99.90
12089;DHT22;6107;49.078;8.578;2023-07-13T03:18:20;14.60;99.90
12089;DHT22;6107;49.078;8.578;2023-07-13T03:20:45;14.70;99.90
12089;DHT22;6107;49.078;8.578;2023-07-13T03:23:11;14.70;99.90
12089;DHT22;6107;49.078;8.578;2023-07-13T03:25:36;14.70;99.90
12089;DHT22;6107;49.078;8.578;2023-07-13T03:28:02;14.50;99.90
12089;DHT22;6107;49.078;8.578;2023-07-13T03:30:28;14.50;99.90
12089;DHT22;6107;49.078;8.578;2023-07-13T03:32:53;14.50;99.90
12089;DHT22;6107;49.078;8.578;2023-07-13T03:35:19;14.70;99.90
12089;DHT22;6107;49.078;8.578;2023-07-13T03:37:44;14.60;99.90
12089;DHT22;6107;49.078;8.578;2023-07-13T03:40:11;14.70;99.90
12089;DHT22;6107;49.078;8.578;2023-07-13T03:42:37;14.70;99.90
12089;DHT22;6107;49.078;8.578;2023-07-13T03:45:03;14.60;99.90
12089;DHT22;6107;49.078;8.578;2023-07-13T03:47:28;14.50;99.90
12089;DHT22;6107;49.078;8.578;2023-07-13T03:49:54;14.50;99.90
12089;DHT22;6107;49.078;8.578;2023-07-13T03:52:19;14.50;99.90
12089;DHT22;6107;49.078;8.578;2023-07-13T03:54:45;14.60;99.90
12089;DHT22;6107;49.078;8.578;2023-07-13T03:57:10;14.50;99.90
12089;DHT22;6107;49.078;8.578;2023-07-13T03:59:36;14.60;99.90
12089;DHT22;6107;49.078;8.578;2023-07-13T04:02:02;14.60;99.90
12089;DHT22;6107;49.078;8.578;2023-07-13T04:04:29;14.50;99.90
12089;DHT22;6107;49.078;8.578;2023-07-13T04:06:57;14.50;99.90
12089;DHT22;6107;49.078;8.578;2023-07-13T04:09:24;14.60;99.90
12089;DHT22;6107;49.078;8.578;2023-07-13T04:11:50;14.70;99.90
12089;DHT22;6107;49.078;8.578;2023-07-13T04:14:15;14.80;99.90
12089;DHT22;6107;49.078;8.578;2023-07-13T04:16:41;14.90;99.90
12089;DHT22;6107;49.078;8.578;2023-07-13T04:19:08;14.90;99.90
12089;DHT22;6107;49.078;8.578;2023-07-13T04:21:35;15.00;99.90
12089;DHT22;6107;49.078;8.578;2023-07-13T04:24:01;15.00;99.90
12089;DHT22;6107;49.078;8.578;2023-07-13T04:26:26;15.00;99.90
12089;DHT22;6107;49.078;8.578;2023-07-13T04:28:52;14.90;99.90
12089;DHT22;6107;49.078;8.578;2023-07-13T04:31:18;14.90;99.90
12089;DHT22;6107;49.078;8.578;2023-07-13T04:33:44;14.70;99.90
12089;DHT22;6107;49.078;8.578;2023-07-13T04:36:09;14.60;99.90
12089;DHT22;6107;49.078;8.578;2023-07-13T04:38:35;14.60;99.90
12089;DHT22;6107;49.078;8.578;2023-07-13T04:41:04;14.50;99.90
12089;DHT22;6107;49.078;8.578;2023-07-13T04:43:31;14.50;99.90
12089;DHT22;6107;49.078;8.578;2023-07-13T04:46:02;14.80;99.90
12089;DHT22;6107;49.078;8.578;2023-07-13T04:48:28;14.80;99.90
12089;DHT22;6107;49.078;8.578;2023-07-13T04:50:57;15.10;99.90
12089;DHT22;6107;49.078;8.578;2023-07-13T04:53:23;15.20;99.90
12089;DHT22;6107;49.078;8.578;2023-07-13T04:55:50;15.40;99.90
12089;DHT22;6107;49.078;8.578;2023-07-13T04:58:16;15.50;99.90
12089;DHT22;6107;49.078;8.578;2023-07-13T05:00:41;15.60;99.90
12089;DHT22;6107;49.078;8.578;2023-07-13T05:05:33;15.80;99.90
12089;DHT22;6107;49.078;8.578;2023-07-13T05:07:59;15.90;99.90
12089;DHT22;6107;49.078;8.578;2023-07-13T05:12:51;16.00;99.90
12089;DHT22;6107;49.078;8.578;2023-07-13T05:15:17;16.10;99.90
12089;DHT22;6107;49.078;8.578;2023-07-13T05:17:47;16.20;99.90
12089;DHT22;6107;49.078;8.578;2023-07-13T05:20:12;16.20;99.90
12089;DHT22;6107;49.078;8.578;2023-07-13T05:22:38;16.50;99.90
12089;DHT22;6107;49.078;8.578;2023-07-13T05:25:07;17.30;99.90
12089;DHT22;6107;49.078;8.578;2023-07-13T05:27:34;16.40;99.90
12089;DHT22;6107;49.078;8.578;2023-07-13T05:30:00;16.40;99.90
12089;DHT22;6107;49.078;8.578;2023-07-13T05:32:26;16.40;99.90
12089;DHT22;6107;49.078;8.578;2023-07-13T05:34:52;16.40;99.90
12089;DHT22;6107;49.078;8.578;2023-07-13T05:37:18;16.40;99.90
12089;DHT22;6107;49.078;8.578;2023-07-13T05:39:43;16.50;99.90
12089;DHT22;6107;49.078;8.578;2023-07-13T05:42:09;16.70;99.90
12089;DHT22;6107;49.078;8.578;2023-07-13T05:44:34;16.70;99.90
12089;DHT22;6107;49.078;8.578;2023-07-13T05:47:00;16.70;99.90
12089;DHT22;6107;49.078;8.578;2023-07-13T05:49:25;16.90;99.90
12089;DHT22;6107;49.078;8.578;2023-07-13T05:51:51;16.90;99.90
12089;DHT22;6107;49.078;8.578;2023-07-13T05:54:16;17.60;99.90
12089;DHT22;6107;49.078;8.578;2023-07-13T05:56:42;18.70;99.90
12089;DHT22;6107;49.078;8.578;2023-07-13T05:59:07;19.20;99.90
12089;DHT22;6107;49.078;8.578;2023-07-13T06:01:33;20.40;99.90
12089;DHT22;6107;49.078;8.578;2023-07-13T06:03:59;21.00;99.90
12089;DHT22;6107;49.078;8.578;2023-07-13T06:06:24;21.50;99.90
12089;DHT22;6107;49.078;8.578;2023-07-13T06:08:50;21.60;99.90
12089;DHT22;6107;49.078;8.578;2023-07-13T06:11:22;21.50;99.90
12089;DHT22;6107;49.078;8.578;2023-07-13T06:13:48;21.50;99.90
12089;DHT22;6107;49.078;8.578;2023-07-13T06:16:14;21.70;99.90
12089;DHT22;6107;49.078;8.578;2023-07-13T06:18:40;21.20;99.90
12089;DHT22;6107;49.078;8.578;2023-07-13T06:21:10;21.20;99.90
12089;DHT22;6107;49.078;8.578;2023-07-13T06:23:36;21.40;99.90
12089;DHT22;6107;49.078;8.578;2023-07-13T06:26:03;22.00;99.90
12089;DHT22;6107;49.078;8.578;2023-07-13T06:28:29;21.50;99.90
12089;DHT22;6107;49.078;8.578;2023-07-13T06:30:57;21.60;99.90
12089;DHT22;6107;49.078;8.578;2023-07-13T06:33:22;21.80;99.90
12089;DHT22;6107;49.078;8.578;2023-07-13T06:35:48;21.70;99.90
12089;DHT22;6107;49.078;8.578;2023-07-13T06:38:13;21.20;99.90
12089;DHT22;6107;49.078;8.578;2023-07-13T06:40:39;20.90;99.90
12089;DHT22;6107;49.078;8.578;2023-07-13T06:43:04;21.00;99.90
12089;DHT22;6107;49.078;8.578;2023-07-13T06:45:30;21.30;99.90
12089;DHT22;6107;49.078;8.578;2023-07-13T06:47:58;21.10;99.90
12089;DHT22;6107;49.078;8.578;2023-07-13T06:50:23;20.80;99.90
12089;DHT22;6107;49.078;8.578;2023-07-13T06:52:49;20.70;99.90
12089;DHT22;6107;49.078;8.578;2023-07-13T06:55:14;20.20;99.90
12089;DHT22;6107;49.078;8.578;2023-07-13T06:57:40;20.20;99.90
12089;DHT22;6107;49.078;8.578;2023-07-13T07:00:06;20.10;99.90
12089;DHT22;6107;49.078;8.578;2023-07-13T07:02:32;20.10;99.90
12089;DHT22;6107;49.078;8.578;2023-07-13T07:04:57;20.10;99.90
12089;DHT22;6107;49.078;8.578;2023-07-13T07:07:24;20.40;99.90
12089;DHT22;6107;49.078;8.578;2023-07-13T07:09:50;20.80;99.90
12089;DHT22;6107;49.078;8.578;2023-07-13T07:12:15;20.60;99.90
12089;DHT22;6107;49.078;8.578;2023-07-13T07:14:41;20.70;99.90
12089;DHT22;6107;49.078;8.578;2023-07-13T07:17:06;20.90;99.90
12089;DHT22;6107;49.078;8.578;2023-07-13T07:19:32;21.10;99.90
12089;DHT22;6107;49.078;8.578;2023-07-13T07:21:57;21.10;99.90
12089;DHT22;6107;49.078;8.578;2023-07-13T07:24:23;20.90;99.90
12089;DHT22;6107;49.078;8.578;2023-07-13T07:26:48;21.00;99.90
12089;DHT22;6107;49.078;8.578;2023-07-13T07:29:14;21.60;99.90
12089;DHT22;6107;49.078;8.578;2023-07-13T07:31:39;21.90;99.90
12089;DHT22;6107;49.078;8.578;2023-07-13T07:34:05;21.70;99.90
12089;DHT22;6107;49.078;8.578;2023-07-13T07:36:30;21.30;99.90
12089;DHT22;6107;49.078;8.578;2023-07-13T07:38:56;21.40;99.90
12089;DHT22;6107;49.078;8.578;2023-07-13T07:41:21;21.50;99.90
12089;DHT22;6107;49.078;8.578;2023-07-13T07:43:47;21.60;99.90
12089;DHT22;6107;49.078;8.578;2023-07-13T07:46:12;21.60;99.90
12089;DHT22;6107;49.078;8.578;2023-07-13T07:48:38;21.80;99.90
12089;DHT22;6107;49.078;8.578;2023-07-13T07:51:03;21.90;99.90
12089;DHT22;6107;49.078;8.578;2023-07-13T07:53:29;22.10;99.90
12089;DHT22;6107;49.078;8.578;2023-07-13T07:55:55;22.20;99.90
12089;DHT22;6107;49.078;8.578;2023-07-13T07:58:20;22.10;99.90
12089;DHT22;6107;49.078;8.578;2023-07-13T08:00:46;22.00;99.90
12089;DHT22;6107;49.078;8.578;2023-07-13T08:03:11;22.00;99.90
12089;DHT22;6107;49.078;8.578;2023-07-13T08:05:37;22.10;99.90
12089;DHT22;6107;49.078;8.578;2023-07-13T08:08:03;22.50;99.90
12089;DHT22;6107;49.078;8.578;2023-07-13T08:10:29;22.50;99.90
12089;DHT22;6107;49.078;8.578;2023-07-13T08:12:54;22.50;99.90
12089;DHT22;6107;49.078;8.578;2023-07-13T08:15:20;22.70;99.90
12089;DHT22;6107;49.078;8.578;2023-07-13T08:17:47;22.70;99.90
12089;DHT22;6107;49.078;8.578;2023-07-13T08:20:13;22.90;99.90
12089;DHT22;6107;49.078;8.578;2023-07-13T08:22:39;23.20;99.90
12089;DHT22;6107;49.078;8.578;2023-07-13T08:25:04;23.10;99.90
12089;DHT22;6107;49.078;8.578;2023-07-13T08:27:30;23.10;99.90
12089;DHT22;6107;49.078;8.578;2023-07-13T08:29:56;23.10;99.90
12089;DHT22;6107;49.078;8.578;2023-07-13T08:32:22;23.20;99.90
12089;DHT22;6107;49.078;8.578;2023-07-13T08:34:48;23.00;99.90
12089;DHT22;6107;49.078;8.578;2023-07-13T08:37:14;23.20;99.90
12089;DHT22;6107;49.078;8.578;2023-07-13T08:39:40;23.40;99.90
12089;DHT22;6107;49.078;8.578;2023-07-13T08:45:21;23.60;99.90
12089;DHT22;6107;49.078;8.578;2023-07-13T08:47:57;23.90;99.90
12089;DHT22;6107;49.078;8.578;2023-07-13T08:50:30;24.10;99.90
12089;DHT22;6107;49.078;8.578;2023-07-13T08:52:56;24.20;99.90
12089;DHT22;6107;49.078;8.578;2023-07-13T08:55:31;24.20;99.90
12089;DHT22;6107;49.078;8.578;2023-07-13T08:58:17;24.00;99.90
12089;DHT22;6107;49.078;8.578;2023-07-13T09:01:00;23.60;99.90
12089;DHT22;6107;49.078;8.578;2023-07-13T09:03:36;24.20;99.90
12089;DHT22;6107;49.078;8.578;2023-07-13T09:06:02;24.60;99.90
12089;DHT22;6107;49.078;8.578;2023-07-13T09:11:20;25.00;99.90
12089;DHT22;6107;49.078;8.578;2023-07-13T09:13:56;25.00;99.90
12089;DHT22;6107;49.078;8.578;2023-07-13T09:16:24;25.20;99.90
12089;DHT22;6107;49.078;8.578;2023-07-13T09:18:52;24.40;99.90
12089;DHT22;6107;49.078;8.578;2023-07-13T09:21:27;24.50;99.90
12089;DHT22;6107;49.078;8.578;2023-07-13T09:23:58;24.80;99.90
12089;DHT22;6107;49.078;8.578;2023-07-13T09:26:28;24.30;99.90
12089;DHT22;6107;49.078;8.578;2023-07-13T09:28:59;24.20;99.90
12089;DHT22;6107;49.078;8.578;2023-07-13T09:31:39;24.50;99.90
12089;DHT22;6107;49.078;8.578;2023-07-13T09:34:12;25.00;99.90
12089;DHT22;6107;49.078;8.578;2023-07-13T09:36:37;25.00;99.90
12089;DHT22;6107;49.078;8.578;2023-07-13T09:44:16;25.20;99.90
12089;DHT22;6107;49.078;8.578;2023-07-13T09:46:55;25.50;99.90
12089;DHT22;6107;49.078;8.578;2023-07-13T09:49:29;25.40;99.90
12089;DHT22;6107;49.078;8.578;2023-07-13T09:52:07;25.40;99.90
12089;DHT22;6107;49.078;8.578;2023-07-13T09:54:36;25.40;99.90
12089;DHT22;6107;49.078;8.578;2023-07-13T09:57:10;25.50;99.90
12089;DHT22;6107;49.078;8.578;2023-07-13T09:59:41;25.90;99.90
12089;DHT22;6107;49.078;8.578;2023-07-13T10:02:30;25.90;99.90
12089;DHT22;6107;49.078;8.578;2023-07-13T10:05:04;25.60;99.90
12089;DHT22;6107;49.078;8.578;2023-07-13T10:07:31;25.50;99.90
12089;DHT22;6107;49.078;8.578;2023-07-13T10:09:58;25.90;99.90
12089;DHT22;6107;49.078;8.578;2023-07-13T10:12:27;25.60;99.90
12089;DHT22;6107;49.078;8.578;2023-07-13T10:14:59;25.50;99.90
12089;DHT22;6107;49.078;8.578;2023-07-13T10:17:32;25.70;99.90
12089;DHT22;6107;49.078;8.578;2023-07-13T10:20:03;25.90;99.90
12089;DHT22;6107;49.078;8.578;2023-07-13T10:25:20;26.30;99.90
12089;DHT22;6107;49.078;8.578;2023-07-13T10:27:48;26.40;99.90
12089;DHT22;6107;49.078;8.578;2023-07-13T10:32:45;25.90;99.90
12089;DHT22;6107;49.078;8.578;2023-07-13T10:35:14;26.40;99.90
12089;DHT22;6107;49.078;8.578;2023-07-13T10:38:10;26.30;99.90
12089;DHT22;6107;49.078;8.578;2023-07-13T10:40:40;26.20;99.90
12089;DHT22;6107;49.078;8.578;2023-07-13T10:43:22;26.30;99.90
12089;DHT22;6107;49.078;8.578;2023-07-13T10:45:49;26.60;99.90
12089;DHT22;6107;49.078;8.578;2023-07-13T10:48:17;26.60;99.90
12089;DHT22;6107;49.078;8.578;2023-07-13T10:50:45;26.90;99.90
12089;DHT22;6107;49.078;8.578;2023-07-13T10:53:22;26.80;99.90
12089;DHT22;6107;49.078;8.578;2023-07-13T10:58:24;26.80;99.90
12089;DHT22;6107;49.078;8.578;2023-07-13T11:01:02;27.10;99.90
12089;DHT22;6107;49.078;8.578;2023-07-13T11:03:30;27.20;99.90
12089;DHT22;6107;49.078;8.578;2023-07-13T11:06:12;26.90;99.90
12089;DHT22;6107;49.078;8.578;2023-07-13T11:09:00;27.30;99.90
12089;DHT22;6107;49.078;8.578;2023-07-13T11:11:35;27.20;99.90
12089;DHT22;6107;49.078;8.578;2023-07-13T11:14:03;27.30;99.90
12089;DHT22;6107;49.078;8.578;2023-07-13T11:16:46;27.40;99.90
12089;DHT22;6107;49.078;8.578;2023-07-13T11:24:29;28.30;99.90
12089;DHT22;6107;49.078;8.578;2023-07-13T11:26:56;28.10;99.90
12089;DHT22;6107;49.078;8.578;2023-07-13T11:29:25;28.10;99.90
12089;DHT22;6107;49.078;8.578;2023-07-13T11:31:54;27.00;99.90
12089;DHT22;6107;49.078;8.578;2023-07-13T11:34:33;27.00;99.90
12089;DHT22;6107;49.078;8.578;2023-07-13T11:37:00;27.10;99.90
12089;DHT22;6107;49.078;8.578;2023-07-13T11:39:35;27.10;99.90
12089;DHT22;6107;49.078;8.578;2023-07-13T11:42:05;27.60;99.90
12089;DHT22;6107;49.078;8.578;2023-07-13T11:44:33;28.00;99.90
12089;DHT22;6107;49.078;8.578;2023-07-13T11:47:08;27.70;99.90
12089;DHT22;6107;49.078;8.578;2023-07-13T11:49:45;27.50;99.90
12089;DHT22;6107;49.078;8.578;2023-07-13T11:52:20;27.40;99.90
12089;DHT22;6107;49.078;8.578;2023-07-13T11:57:32;28.20;99.90
12089;DHT22;6107;49.078;8.578;2023-07-13T12:00:02;28.70;99.90
12089;DHT22;6107;49.078;8.578;2023-07-13T12:02:37;28.70;99.90
12089;DHT22;6107;49.078;8.578;2023-07-13T12:05:04;28.60;99.90
12089;DHT22;6107;49.078;8.578;2023-07-13T12:07:32;28.90;99.90
12089;DHT22;6107;49.078;8.578;2023-07-13T12:10:31;28.60;99.90
12089;DHT22;6107;49.078;8.578;2023-07-13T12:13:04;28.90;99.90
12089;DHT22;6107;49.078;8.578;2023-07-13T12:15:42;28.60;99.90
12089;DHT22;6107;49.078;8.578;2023-07-13T12:18:18;29.00;99.90
12089;DHT22;6107;49.078;8.578;2023-07-13T12:20:45;28.10;99.90
12089;DHT22;6107;49.078;8.578;2023-07-13T12:25:55;28.80;99.90
12089;DHT22;6107;49.078;8.578;2023-07-13T12:29:11;29.00;99.90
12089;DHT22;6107;49.078;8.578;2023-07-13T12:31:35;28.20;99.90
12089;DHT22;6107;49.078;8.578;2023-07-13T12:34:13;27.80;99.90
12089;DHT22;6107;49.078;8.578;2023-07-13T12:37:00;27.70;99.90
12089;DHT22;6107;49.078;8.578;2023-07-13T12:39:35;28.80;99.90
12089;DHT22;6107;49.078;8.578;2023-07-13T12:42:25;27.90;99.90
12089;DHT22;6107;49.078;8.578;2023-07-13T12:47:20;27.30;99.90
12089;DHT22;6107;49.078;8.578;2023-07-13T12:49:57;27.50;99.90
12089;DHT22;6107;49.078;8.578;2023-07-13T12:52:33;27.80;99.90
12089;DHT22;6107;49.078;8.578;2023-07-13T12:55:07;28.10;99.90
12089;DHT22;6107;49.078;8.578;2023-07-13T12:57:41;28.30;99.90
12089;DHT22;6107;49.078;8.578;2023-07-13T13:00:37;28.20;99.90
12089;DHT22;6107;49.078;8.578;2023-07-13T13:05:45;28.20;99.80
12089;DHT22;6107;49.078;8.578;2023-07-13T13:08:11;27.90;99.20
12089;DHT22;6107;49.078;8.578;2023-07-13T13:10:37;27.50;99.80
12089;DHT22;6107;49.078;8.578;2023-07-13T13:13:03;27.70;99.90
12089;DHT22;6107;49.078;8.578;2023-07-13T13:15:28;27.60;99.90
12089;DHT22;6107;49.078;8.578;2023-07-13T13:17:55;27.30;99.90
12089;DHT22;6107;49.078;8.578;2023-07-13T13:20:21;27.60;99.90
12089;DHT22;6107;49.078;8.578;2023-07-13T13:22:47;27.80;97.80
12089;DHT22;6107;49.078;8.578;2023-07-13T13:25:14;28.10;99.90
12089;DHT22;6107;49.078;8.578;2023-07-13T13:27:43;27.80;99.00
12089;DHT22;6107;49.078;8.578;2023-07-13T13:30:14;28.20;98.10
12089;DHT22;6107;49.078;8.578;2023-07-13T13:32:41;28.20;97.40
12089;DHT22;6107;49.078;8.578;2023-07-13T13:35:16;28.50;97.40
12089;DHT22;6107;49.078;8.578;2023-07-13T13:37:42;29.10;97.20
12089;DHT22;6107;49.078;8.578;2023-07-13T13:40:21;29.50;96.00
12089;DHT22;6107;49.078;8.578;2023-07-13T13:42:48;29.70;95.90
12089;DHT22;6107;49.078;8.578;2023-07-13T13:45:14;29.20;94.70
12089;DHT22;6107;49.078;8.578;2023-07-13T13:47:41;28.90;95.70
12089;DHT22;6107;49.078;8.578;2023-07-13T13:50:20;28.50;94.70
12089;DHT22;6107;49.078;8.578;2023-07-13T13:52:47;28.40;95.90
12089;DHT22;6107;49.078;8.578;2023-07-13T13:55:21;28.40;95.20
12089;DHT22;6107;49.078;8.578;2023-07-13T13:57:48;28.60;95.80
12089;DHT22;6107;49.078;8.578;2023-07-13T14:00:16;28.60;95.60
12089;DHT22;6107;49.078;8.578;2023-07-13T14:02:44;28.50;94.40
12089;DHT22;6107;49.078;8.578;2023-07-13T14:05:20;29.00;95.00
12089;DHT22;6107;49.078;8.578;2023-07-13T14:07:46;29.30;94.80
12089;DHT22;6107;49.078;8.578;2023-07-13T14:10:17;29.40;96.80
12089;DHT22;6107;49.078;8.578;2023-07-13T14:12:45;29.30;92.50
12089;DHT22;6107;49.078;8.578;2023-07-13T14:15:19;29.40;93.80
12089;DHT22;6107;49.078;8.578;2023-07-13T14:17:45;29.50;93.90
12089;DHT22;6107;49.078;8.578;2023-07-13T14:20:12;29.60;93.30
12089;DHT22;6107;49.078;8.578;2023-07-13T14:22:37;29.50;93.20
12089;DHT22;6107;49.078;8.578;2023-07-13T14:25:03;29.40;92.50
12089;DHT22;6107;49.078;8.578;2023-07-13T14:27:29;29.80;93.30
12089;DHT22;6107;49.078;8.578;2023-07-13T14:29:54;29.90;92.90
12089;DHT22;6107;49.078;8.578;2023-07-13T14:32:20;29.80;92.20
12089;DHT22;6107;49.078;8.578;2023-07-13T14:34:45;30.30;92.50
12089;DHT22;6107;49.078;8.578;2023-07-13T14:37:15;29.60;92.30
12089;DHT22;6107;49.078;8.578;2023-07-13T14:39:43;29.80;93.00
12089;DHT22;6107;49.078;8.578;2023-07-13T14:42:09;30.20;94.50
12089;DHT22;6107;49.078;8.578;2023-07-13T14:44:35;30.70;93.80
12089;DHT22;6107;49.078;8.578;2023-07-13T14:47:03;30.30;92.40
12089;DHT22;6107;49.078;8.578;2023-07-13T14:52:00;29.80;92.60
12089;DHT22;6107;49.078;8.578;2023-07-13T14:54:26;29.50;93.20
12089;DHT22;6107;49.078;8.578;2023-07-13T14:56:52;29.80;93.10
12089;DHT22;6107;49.078;8.578;2023-07-13T14:59:17;30.00;92.00
12089;DHT22;6107;49.078;8.578;2023-07-13T15:01:45;29.60;93.30
12089;DHT22;6107;49.078;8.578;2023-07-13T15:04:11;29.60;92.20
12089;DHT22;6107;49.078;8.578;2023-07-13T15:06:57;29.50;91.60
12089;DHT22;6107;49.078;8.578;2023-07-13T15:09:24;29.40;91.30
12089;DHT22;6107;49.078;8.578;2023-07-13T15:11:55;29.70;92.30
12089;DHT22;6107;49.078;8.578;2023-07-13T15:14:21;29.70;91.40
12089;DHT22;6107;49.078;8.578;2023-07-13T15:16:49;29.50;92.10
12089;DHT22;6107;49.078;8.578;2023-07-13T15:19:16;30.00;93.20
12089;DHT22;6107;49.078;8.578;2023-07-13T15:21:42;29.70;91.20
12089;DHT22;6107;49.078;8.578;2023-07-13T15:24:10;29.60;91.60
12089;DHT22;6107;49.078;8.578;2023-07-13T15:26:36;29.80;91.70
12089;DHT22;6107;49.078;8.578;2023-07-13T15:29:01;29.70;92.30
12089;DHT22;6107;49.078;8.578;2023-07-13T15:31:28;29.20;91.40
12089;DHT22;6107;49.078;8.578;2023-07-13T15:33:55;28.80;92.40
12089;DHT22;6107;49.078;8.578;2023-07-13T15:36:23;28.90;92.70
12089;DHT22;6107;49.078;8.578;2023-07-13T15:38:50;28.20;92.20
12089;DHT22;6107;49.078;8.578;2023-07-13T15:41:25;27.80;94.10
12089;DHT22;6107;49.078;8.578;2023-07-13T15:43:52;27.80;93.20
12089;DHT22;6107;49.078;8.578;2023-07-13T15:46:19;28.10;93.20
12089;DHT22;6107;49.078;8.578;2023-07-13T15:48:46;28.30;93.20
12089;DHT22;6107;49.078;8.578;2023-07-13T15:51:23;28.80;94.30
12089;DHT22;6107;49.078;8.578;2023-07-13T15:53:50;28.80;92.40
12089;DHT22;6107;49.078;8.578;2023-07-13T15:56:20;29.00;92.90
12089;DHT22;6107;49.078;8.578;2023-07-13T15:58:46;28.90;92.00
12089;DHT22;6107;49.078;8.578;2023-07-13T16:01:12;28.60;91.80
12089;DHT22;6107;49.078;8.578;2023-07-13T16:03:38;28.50;93.20
12089;DHT22;6107;49.078;8.578;2023-07-13T16:06:14;28.50;91.80
12089;DHT22;6107;49.078;8.578;2023-07-13T16:08:41;28.80;92.40
12089;DHT22;6107;49.078;8.578;2023-07-13T16:11:20;28.80;92.80
12089;DHT22;6107;49.078;8.578;2023-07-13T16:13:47;28.60;92.70
12089;DHT22;6107;49.078;8.578;2023-07-13T16:16:19;28.20;92.40
12089;DHT22;6107;49.078;8.578;2023-07-13T16:18:44;28.80;93.90
12089;DHT22;6107;49.078;8.578;2023-07-13T16:21:12;28.70;92.50
12089;DHT22;6107;49.078;8.578;2023-07-13T16:23:38;29.00;93.00
12089;DHT22;6107;49.078;8.578;2023-07-13T16:26:34;29.20;94.10
12089;DHT22;6107;49.078;8.578;2023-07-13T16:29:17;29.00;92.50
12089;DHT22;6107;49.078;8.578;2023-07-13T16:34:20;29.20;92.00
12089;DHT22;6107;49.078;8.578;2023-07-13T16:36:46;29.10;91.70
12089;DHT22;6107;49.078;8.578;2023-07-13T16:39:12;28.50;91.80
12089;DHT22;6107;49.078;8.578;2023-07-13T16:41:39;28.00;91.60
12089;DHT22;6107;49.078;8.578;2023-07-13T16:44:10;28.10;92.20
12089;DHT22;6107;49.078;8.578;2023-07-13T16:46:37;28.50;92.70
12089;DHT22;6107;49.078;8.578;2023-07-13T16:49:10;29.00;93.10